Terminal Aerodrome Forecast
Issued by NWS Charleston, WV

Current Version | Previous Version | Graphics & Text | Print | Product List | Glossary On
Versions: 1 2 3 4 5 6 7 8 9 10 11 12 13 14 15 16 17 18 19 20 21 22 23 24 25 26
167
FTUS41 KRLX 070538
TAFEKN
TAF
KEKN 070538Z 0706/0806 28008G14KT P6SM OVC012
      TEMPO 0706/0709 3SM -DZ OVC008
     FM070900 28007KT P6SM OVC008
     FM071700 28004KT P6SM BKN015
     FM071900 28004KT P6SM BKN025
     FM072000 VRB03KT P6SM BKN035
     FM072100 VRB03KT P6SM SCT035
     FM080500 00000KT P6SM BKN010=

USA.gov is the U.S. government's official web portal to all federal, state and local government web resources and services.